sensor_id;sensor_type;location;lat;lon;timestamp;pressure;altitude;pressure_sealevel;temperature;humidity
4085;BME280;2057;50.858;6.572;2023-03-01T00:01:38;101677.66;;;0.32;85.38
4085;BME280;2057;50.858;6.572;2023-03-01T00:04:03;101674.44;;;0.33;85.14
4085;BME280;2057;50.858;6.572;2023-03-01T00:06:29;101675.81;;;0.38;85.42
4085;BME280;2057;50.858;6.572;2023-03-01T00:08:54;101682.75;;;0.41;85.55
4085;BME280;2057;50.858;6.572;2023-03-01T00:11:28;101679.03;;;0.37;85.75
4085;BME280;2057;50.858;6.572;2023-03-01T00:13:56;101680.31;;;0.34;85.34
4085;BME280;2057;50.858;6.572;2023-03-01T00:16:26;101681.44;;;0.28;85.26
4085;BME280;2057;50.858;6.572;2023-03-01T00:18:51;101672.16;;;0.27;85.54
4085;BME280;2057;50.858;6.572;2023-03-01T00:21:20;101682.50;;;0.23;85.21
4085;BME280;2057;50.858;6.572;2023-03-01T00:23:46;101691.47;;;0.14;85.25
4085;BME280;2057;50.858;6.572;2023-03-01T00:26:13;101688.47;;;0.17;85.84
4085;BME280;2057;50.858;6.572;2023-03-01T00:28:39;101691.69;;;0.15;86.02
4085;BME280;2057;50.858;6.572;2023-03-01T00:31:06;101684.75;;;0.13;86.01
4085;BME280;2057;50.858;6.572;2023-03-01T00:33:32;101676.56;;;0.07;85.85
4085;BME280;2057;50.858;6.572;2023-03-01T00:35:59;101680.47;;;0.12;86.44
4085;BME280;2057;50.858;6.572;2023-03-01T00:38:24;101688.72;;;0.04;85.71
4085;BME280;2057;50.858;6.572;2023-03-01T00:40:49;101685.31;;;0.03;85.77
4085;BME280;2057;50.858;6.572;2023-03-01T00:43:15;101681.94;;;0.03;85.85
4085;BME280;2057;50.858;6.572;2023-03-01T00:45:40;101676.94;;;0.03;85.63
4085;BME280;2057;50.858;6.572;2023-03-01T00:48:05;101677.00;;;-0.05;85.88
4085;BME280;2057;50.858;6.572;2023-03-01T00:50:34;101678.03;;;-0.03;86.28
4085;BME280;2057;50.858;6.572;2023-03-01T00:52:59;101677.50;;;0.00;86.23
4085;BME280;2057;50.858;6.572;2023-03-01T00:55:25;101676.25;;;-0.04;86.35
4085;BME280;2057;50.858;6.572;2023-03-01T00:57:51;101676.25;;;-0.04;86.24
4085;BME280;2057;50.858;6.572;2023-03-01T01:00:17;101678.03;;;-0.03;86.41
4085;BME280;2057;50.858;6.572;2023-03-01T01:02:42;101676.03;;;0.02;86.55
4085;BME280;2057;50.858;6.572;2023-03-01T01:05:08;101665.19;;;0.02;85.91
4085;BME280;2057;50.858;6.572;2023-03-01T01:07:34;101670.91;;;0.01;85.94
4085;BME280;2057;50.858;6.572;2023-03-01T01:09:59;101670.03;;;0.00;85.74
4085;BME280;2057;50.858;6.572;2023-03-01T01:12:25;101665.56;;;-0.03;85.95
4085;BME280;2057;50.858;6.572;2023-03-01T01:14:50;101659.34;;;-0.06;85.52
4085;BME280;2057;50.858;6.572;2023-03-01T01:17:15;101660.75;;;-0.08;85.66
4085;BME280;2057;50.858;6.572;2023-03-01T01:19:41;101658.66;;;-0.12;85.65
4085;BME280;2057;50.858;6.572;2023-03-01T01:22:06;101653.16;;;-0.17;85.66
4085;BME280;2057;50.858;6.572;2023-03-01T01:24:32;101649.59;;;-0.19;85.96
4085;BME280;2057;50.858;6.572;2023-03-01T01:26:57;101648.94;;;-0.25;86.38
4085;BME280;2057;50.858;6.572;2023-03-01T01:29:22;101650.75;;;-0.32;86.39
4085;BME280;2057;50.858;6.572;2023-03-01T01:31:48;101642.19;;;-0.34;86.97
4085;BME280;2057;50.858;6.572;2023-03-01T01:34:18;101641.81;;;-0.29;86.92
4085;BME280;2057;50.858;6.572;2023-03-01T01:36:52;101641.81;;;-0.29;87.16
4085;BME280;2057;50.858;6.572;2023-03-01T01:39:21;101634.50;;;-0.28;86.19
4085;BME280;2057;50.858;6.572;2023-03-01T01:41:46;101630.75;;;-0.24;86.27
4085;BME280;2057;50.858;6.572;2023-03-01T01:46:54;101624.09;;;-0.17;86.13
4085;BME280;2057;50.858;6.572;2023-03-01T01:51:52;101618.84;;;-0.27;86.17
4085;BME280;2057;50.858;6.572;2023-03-01T01:54:31;101623.97;;;-0.25;86.12
4085;BME280;2057;50.858;6.572;2023-03-01T01:57:01;101614.72;;;-0.26;86.04
4085;BME280;2057;50.858;6.572;2023-03-01T01:59:30;101600.47;;;-0.27;85.99
4085;BME280;2057;50.858;6.572;2023-03-01T02:02:01;101605.78;;;-0.24;85.93
4085;BME280;2057;50.858;6.572;2023-03-01T02:04:29;101606.34;;;-0.27;85.47
4085;BME280;2057;50.858;6.572;2023-03-01T02:07:02;101597.63;;;-0.30;86.17
4085;BME280;2057;50.858;6.572;2023-03-01T02:09:30;101600.66;;;-0.33;86.30
4085;BME280;2057;50.858;6.572;2023-03-01T02:11:57;101588.53;;;-0.60;85.98
4085;BME280;2057;50.858;6.572;2023-03-01T02:14:22;101590.75;;;-0.85;87.92
4085;BME280;2057;50.858;6.572;2023-03-01T02:16:51;101593.59;;;-0.75;87.92
4085;BME280;2057;50.858;6.572;2023-03-01T02:22:10;101593.47;;;-0.53;87.88
4085;BME280;2057;50.858;6.572;2023-03-01T02:24:50;101587.00;;;-0.44;87.53
4085;BME280;2057;50.858;6.572;2023-03-01T02:27:22;101588.31;;;-0.55;87.39
4085;BME280;2057;50.858;6.572;2023-03-01T02:29:52;101583.78;;;-0.43;87.46
4085;BME280;2057;50.858;6.572;2023-03-01T02:32:18;101595.16;;;-0.38;86.34
4085;BME280;2057;50.858;6.572;2023-03-01T02:34:52;101582.72;;;-0.45;86.40
4085;BME280;2057;50.858;6.572;2023-03-01T02:37:18;101581.38;;;-0.57;86.54
4085;BME280;2057;50.858;6.572;2023-03-01T02:39:53;101579.25;;;-0.61;87.38
4085;BME280;2057;50.858;6.572;2023-03-01T02:42:26;101582.66;;;-0.61;87.88
4085;BME280;2057;50.858;6.572;2023-03-01T02:44:51;101590.16;;;-0.68;88.05
4085;BME280;2057;50.858;6.572;2023-03-01T02:47:17;101588.56;;;-0.68;87.83
4085;BME280;2057;50.858;6.572;2023-03-01T02:49:42;101594.28;;;-0.76;87.43
4085;BME280;2057;50.858;6.572;2023-03-01T02:52:53;101593.59;;;-0.82;87.43
4085;BME280;2057;50.858;6.572;2023-03-01T02:55:22;101588.78;;;-0.81;87.63
4085;BME280;2057;50.858;6.572;2023-03-01T02:57:50;101590.72;;;-0.78;87.94
4085;BME280;2057;50.858;6.572;2023-03-01T03:00:24;101584.72;;;-0.87;87.17
4085;BME280;2057;50.858;6.572;2023-03-01T03:02:55;101589.69;;;-0.87;86.86
4085;BME280;2057;50.858;6.572;2023-03-01T03:05:30;101590.94;;;-0.84;86.83
4085;BME280;2057;50.858;6.572;2023-03-01T03:07:59;101587.88;;;-0.81;87.22
4085;BME280;2057;50.858;6.572;2023-03-01T03:10:45;101581.47;;;-0.79;87.59
4085;BME280;2057;50.858;6.572;2023-03-01T03:13:14;101574.72;;;-0.80;87.31
4085;BME280;2057;50.858;6.572;2023-03-01T03:15:41;101577.91;;;-0.81;87.40
4085;BME280;2057;50.858;6.572;2023-03-01T03:18:10;101571.69;;;-0.85;87.27
4085;BME280;2057;50.858;6.572;2023-03-01T03:20:36;101568.50;;;-0.84;87.52
4085;BME280;2057;50.858;6.572;2023-03-01T03:23:02;101565.63;;;-0.80;87.36
4085;BME280;2057;50.858;6.572;2023-03-01T03:25:30;101562.63;;;-0.84;87.51
4085;BME280;2057;50.858;6.572;2023-03-01T03:27:56;101565.84;;;-0.85;87.43
4085;BME280;2057;50.858;6.572;2023-03-01T03:30:25;101560.69;;;-0.94;87.06
4085;BME280;2057;50.858;6.572;2023-03-01T03:32:51;101558.91;;;-0.95;87.09
4085;BME280;2057;50.858;6.572;2023-03-01T03:35:25;101561.91;;;-0.90;87.10
4085;BME280;2057;50.858;6.572;2023-03-01T03:37:51;101558.91;;;-0.88;86.92
4085;BME280;2057;50.858;6.572;2023-03-01T03:42:59;101553.41;;;-0.92;87.32
4085;BME280;2057;50.858;6.572;2023-03-01T03:45:24;101551.44;;;-0.88;87.55
4085;BME280;2057;50.858;6.572;2023-03-01T03:47:50;101551.06;;;-0.91;87.01
4085;BME280;2057;50.858;6.572;2023-03-01T03:50:16;101561.59;;;-0.93;86.46
4085;BME280;2057;50.858;6.572;2023-03-01T03:52:42;101556.06;;;-0.91;86.82
4085;BME280;2057;50.858;6.572;2023-03-01T03:55:12;101549.38;;;-1.06;85.82
4085;BME280;2057;50.858;6.572;2023-03-01T03:57:45;101548.47;;;-1.07;87.13
4085;BME280;2057;50.858;6.572;2023-03-01T04:00:18;101547.94;;;-1.04;87.30
4085;BME280;2057;50.858;6.572;2023-03-01T04:02:46;101553.44;;;-1.07;87.74
4085;BME280;2057;50.858;6.572;2023-03-01T04:05:14;101550.59;;;-1.03;87.29
4085;BME280;2057;50.858;6.572;2023-03-01T04:07:41;101546.00;;;-1.14;86.51
4085;BME280;2057;50.858;6.572;2023-03-01T04:10:12;101538.50;;;-1.07;86.85
4085;BME280;2057;50.858;6.572;2023-03-01T04:12:37;101534.97;;;-1.09;87.03
4085;BME280;2057;50.858;6.572;2023-03-01T04:15:05;101534.59;;;-1.12;86.58
4085;BME280;2057;50.858;6.572;2023-03-01T04:17:47;101525.38;;;-1.20;86.94
4085;BME280;2057;50.858;6.572;2023-03-01T04:20:15;101527.69;;;-1.29;87.19
4085;BME280;2057;50.858;6.572;2023-03-01T04:22:52;101528.59;;;-1.29;87.98
4085;BME280;2057;50.858;6.572;2023-03-01T04:25:22;101517.56;;;-1.31;87.90
4085;BME280;2057;50.858;6.572;2023-03-01T04:27:48;101520.09;;;-1.38;87.66
4085;BME280;2057;50.858;6.572;2023-03-01T04:30:13;101523.81;;;-1.34;88.19
4085;BME280;2057;50.858;6.572;2023-03-01T04:32:39;101514.38;;;-1.30;88.58
4085;BME280;2057;50.858;6.572;2023-03-01T04:35:04;101519.91;;;-1.32;88.09
4085;BME280;2057;50.858;6.572;2023-03-01T04:37:29;101527.91;;;-1.28;88.22
4085;BME280;2057;50.858;6.572;2023-03-01T04:39:58;101528.97;;;-1.33;87.97
4085;BME280;2057;50.858;6.572;2023-03-01T04:42:23;101519.72;;;-1.34;88.18
4085;BME280;2057;50.858;6.572;2023-03-01T04:44:48;101522.19;;;-1.34;87.86
4085;BME280;2057;50.858;6.572;2023-03-01T04:47:16;101520.63;;;-1.33;88.32
4085;BME280;2057;50.858;6.572;2023-03-01T04:49:44;101517.41;;;-1.32;88.52
4085;BME280;2057;50.858;6.572;2023-03-01T04:52:09;101513.31;;;-1.32;88.22
4085;BME280;2057;50.858;6.572;2023-03-01T04:54:35;101521.16;;;-1.36;88.51
4085;BME280;2057;50.858;6.572;2023-03-01T04:57:01;101520.44;;;-1.35;88.72
4085;BME280;2057;50.858;6.572;2023-03-01T04:59:27;101517.75;;;-1.36;88.37
4085;BME280;2057;50.858;6.572;2023-03-01T05:01:54;101514.75;;;-1.41;88.87
4085;BME280;2057;50.858;6.572;2023-03-01T05:04:23;101514.06;;;-1.47;88.98
4085;BME280;2057;50.858;6.572;2023-03-01T05:06:49;101508.53;;;-1.45;88.47
4085;BME280;2057;50.858;6.572;2023-03-01T05:09:15;101511.22;;;-1.43;88.59
4085;BME280;2057;50.858;6.572;2023-03-01T05:11:41;101511.75;;;-1.46;87.92
4085;BME280;2057;50.858;6.572;2023-03-01T05:14:10;101507.13;;;-1.50;88.55
4085;BME280;2057;50.858;6.572;2023-03-01T05:16:38;101508.75;;;-1.43;88.62
4085;BME280;2057;50.858;6.572;2023-03-01T05:19:04;101514.06;;;-1.47;88.41
4085;BME280;2057;50.858;6.572;2023-03-01T05:21:37;101509.81;;;-1.55;88.88
4085;BME280;2057;50.858;6.572;2023-03-01T05:24:23;101514.25;;;-1.53;89.01
4085;BME280;2057;50.858;6.572;2023-03-01T05:26:49;101513.88;;;-1.56;89.34
4085;BME280;2057;50.858;6.572;2023-03-01T05:29:18;101511.25;;;-1.58;89.64
4085;BME280;2057;50.858;6.572;2023-03-01T05:31:43;101514.09;;;-1.62;89.55
4085;BME280;2057;50.858;6.572;2023-03-01T05:34:08;101511.63;;;-1.62;90.06
4085;BME280;2057;50.858;6.572;2023-03-01T05:36:33;101505.22;;;-1.67;89.77
4085;BME280;2057;50.858;6.572;2023-03-01T05:38:59;101509.31;;;-1.67;90.61
4085;BME280;2057;50.858;6.572;2023-03-01T05:41:27;101507.69;;;-1.67;90.18
4085;BME280;2057;50.858;6.572;2023-03-01T05:43:53;101504.16;;;-1.76;90.44
4085;BME280;2057;50.858;6.572;2023-03-01T05:46:18;101499.34;;;-1.82;91.40
4085;BME280;2057;50.858;6.572;2023-03-01T05:48:43;101512.31;;;-1.77;91.75
4085;BME280;2057;50.858;6.572;2023-03-01T05:51:09;101502.72;;;-1.74;91.92
4085;BME280;2057;50.858;6.572;2023-03-01T05:53:34;101504.16;;;-1.76;91.59
4085;BME280;2057;50.858;6.572;2023-03-01T05:55:59;101512.31;;;-1.77;91.89
4085;BME280;2057;50.858;6.572;2023-03-01T05:58:25;101510.75;;;-1.84;91.54
4085;BME280;2057;50.858;6.572;2023-03-01T06:00:50;101521.25;;;-1.79;91.66
4085;BME280;2057;50.858;6.572;2023-03-01T06:03:17;101522.28;;;-1.77;91.38
4085;BME280;2057;50.858;6.572;2023-03-01T06:05:43;101524.06;;;-1.76;91.82
4085;BME280;2057;50.858;6.572;2023-03-01T06:08:10;101518.38;;;-1.75;91.65
4085;BME280;2057;50.858;6.572;2023-03-01T06:10:36;101516.97;;;-1.80;91.63
4085;BME280;2057;50.858;6.572;2023-03-01T06:13:01;101508.81;;;-1.86;92.00
4085;BME280;2057;50.858;6.572;2023-03-01T06:15:27;101516.78;;;-1.89;92.21
4085;BME280;2057;50.858;6.572;2023-03-01T06:17:54;101506.66;;;-1.91;92.50
4085;BME280;2057;50.858;6.572;2023-03-01T06:20:25;101511.09;;;-1.88;92.46
4085;BME280;2057;50.858;6.572;2023-03-01T06:22:51;101513.03;;;-1.85;92.90
4085;BME280;2057;50.858;6.572;2023-03-01T06:25:22;101502.56;;;-1.90;92.58
4085;BME280;2057;50.858;6.572;2023-03-01T06:27:48;101505.06;;;-1.90;92.46
4085;BME280;2057;50.858;6.572;2023-03-01T06:30:15;101499.56;;;-1.87;92.48
4085;BME280;2057;50.858;6.572;2023-03-01T06:32:41;101495.81;;;-1.84;92.41
4085;BME280;2057;50.858;6.572;2023-03-01T06:35:11;101500.28;;;-1.88;92.41
4085;BME280;2057;50.858;6.572;2023-03-01T06:37:37;101500.97;;;-1.90;92.48
4085;BME280;2057;50.858;6.572;2023-03-01T06:40:03;101503.84;;;-1.86;92.35
4085;BME280;2057;50.858;6.572;2023-03-01T06:42:34;101504.34;;;-1.82;92.63
4085;BME280;2057;50.858;6.572;2023-03-01T06:45:00;101500.81;;;-1.84;92.25
4085;BME280;2057;50.858;6.572;2023-03-01T06:47:25;101506.31;;;-1.86;92.42
4085;BME280;2057;50.858;6.572;2023-03-01T06:49:50;101502.59;;;-1.83;92.32
4085;BME280;2057;50.858;6.572;2023-03-01T06:52:16;101499.91;;;-1.84;92.50
4085;BME280;2057;50.858;6.572;2023-03-01T06:54:41;101503.13;;;-1.78;92.99
4085;BME280;2057;50.858;6.572;2023-03-01T06:57:06;101499.72;;;-1.79;92.50
4085;BME280;2057;50.858;6.572;2023-03-01T06:59:33;101504.84;;;-1.77;93.15
4085;BME280;2057;50.858;6.572;2023-03-01T07:01:58;101505.94;;;-1.75;93.12
4085;BME280;2057;50.858;6.572;2023-03-01T07:04:23;101507.16;;;-1.71;93.12
4085;BME280;2057;50.858;6.572;2023-03-01T07:06:49;101509.84;;;-1.70;93.30
4085;BME280;2057;50.858;6.572;2023-03-01T07:09:20;101506.81;;;-1.67;93.26
4085;BME280;2057;50.858;6.572;2023-03-01T07:11:47;101509.31;;;-1.67;93.50
4085;BME280;2057;50.858;6.572;2023-03-01T07:14:12;101509.63;;;-1.64;93.64
4085;BME280;2057;50.858;6.572;2023-03-01T07:16:37;101512.31;;;-1.63;93.70
4085;BME280;2057;50.858;6.572;2023-03-01T07:19:03;101513.41;;;-1.61;94.50
4085;BME280;2057;50.858;6.572;2023-03-01T07:21:28;101511.94;;;-1.59;93.86
4085;BME280;2057;50.858;6.572;2023-03-01T07:23:53;101511.25;;;-1.58;94.22
4085;BME280;2057;50.858;6.572;2023-03-01T07:26:19;101504.28;;;-1.53;94.54
4085;BME280;2057;50.858;6.572;2023-03-01T07:28:44;101499.66;;;-1.50;94.67
4085;BME280;2057;50.858;6.572;2023-03-01T07:31:12;101490.03;;;-1.47;94.31
4085;BME280;2057;50.858;6.572;2023-03-01T07:33:40;101494.31;;;-1.46;94.19
4085;BME280;2057;50.858;6.572;2023-03-01T07:36:05;101500.34;;;-1.44;94.48
4085;BME280;2057;50.858;6.572;2023-03-01T07:38:31;101497.84;;;-1.36;94.20
4085;BME280;2057;50.858;6.572;2023-03-01T07:41:01;101497.28;;;-1.34;94.03
4085;BME280;2057;50.858;6.572;2023-03-01T07:43:28;101493.75;;;-1.36;94.01
4085;BME280;2057;50.858;6.572;2023-03-01T07:45:54;101495.34;;;-1.36;94.41
4085;BME280;2057;50.858;6.572;2023-03-01T07:48:19;101496.78;;;-1.31;94.23
4085;BME280;2057;50.858;6.572;2023-03-01T07:50:44;101487.69;;;-1.31;93.97
4085;BME280;2057;50.858;6.572;2023-03-01T07:53:10;101485.72;;;-1.26;93.56
4085;BME280;2057;50.858;6.572;2023-03-01T07:55:36;101481.28;;;-1.29;93.22
4085;BME280;2057;50.858;6.572;2023-03-01T07:58:02;101492.63;;;-1.23;92.93
4085;BME280;2057;50.858;6.572;2023-03-01T08:00:31;101493.16;;;-1.19;92.89
4085;BME280;2057;50.858;6.572;2023-03-01T08:02:59;101489.25;;;-1.17;92.68
4085;BME280;2057;50.858;6.572;2023-03-01T08:05:25;101490.84;;;-1.17;92.44
4085;BME280;2057;50.858;6.572;2023-03-01T08:07:50;101488.84;;;-1.13;93.21
4085;BME280;2057;50.858;6.572;2023-03-01T08:10:16;101486.00;;;-1.08;92.84
4085;BME280;2057;50.858;6.572;2023-03-01T08:12:41;101483.31;;;-1.03;92.70
4085;BME280;2057;50.858;6.572;2023-03-01T08:15:07;101480.66;;;-1.12;92.62
4085;BME280;2057;50.858;6.572;2023-03-01T08:17:33;101478.66;;;-1.00;92.84
4085;BME280;2057;50.858;6.572;2023-03-01T08:19:58;101480.41;;;-0.91;92.74
4085;BME280;2057;50.858;6.572;2023-03-01T08:22:24;101488.81;;;-0.98;91.97
4085;BME280;2057;50.858;6.572;2023-03-01T08:24:52;101482.19;;;-0.98;91.88
4085;BME280;2057;50.858;6.572;2023-03-01T08:27:17;101478.78;;;-0.91;92.63
4085;BME280;2057;50.858;6.572;2023-03-01T08:29:42;101485.88;;;-0.80;92.16
4085;BME280;2057;50.858;6.572;2023-03-01T08:32:08;101489.03;;;-0.73;91.72
4085;BME280;2057;50.858;6.572;2023-03-01T08:34:33;101487.41;;;-0.73;91.75
4085;BME280;2057;50.858;6.572;2023-03-01T08:37:00;101486.00;;;-0.48;91.69
4085;BME280;2057;50.858;6.572;2023-03-01T08:39:26;101488.88;;;-0.52;90.80
4085;BME280;2057;50.858;6.572;2023-03-01T08:41:52;101492.28;;;-0.51;91.57
4085;BME280;2057;50.858;6.572;2023-03-01T08:44:19;101497.41;;;-0.50;91.16
4085;BME280;2057;50.858;6.572;2023-03-01T08:46:46;101486.66;;;-0.41;91.38
4085;BME280;2057;50.858;6.572;2023-03-01T08:49:14;101484.19;;;-0.41;90.73
4085;BME280;2057;50.858;6.572;2023-03-01T08:51:40;101488.22;;;-0.35;90.31
4085;BME280;2057;50.858;6.572;2023-03-01T08:54:10;101484.31;;;-0.33;89.40
4085;BME280;2057;50.858;6.572;2023-03-01T08:56:36;101474.25;;;-0.25;89.58
4085;BME280;2057;50.858;6.572;2023-03-01T08:59:02;101474.59;;;-0.22;89.25
4085;BME280;2057;50.858;6.572;2023-03-01T09:01:28;101467.78;;;-0.16;88.82
4085;BME280;2057;50.858;6.572;2023-03-01T09:03:57;101471.25;;;-0.07;88.95
4085;BME280;2057;50.858;6.572;2023-03-01T09:06:22;101475.34;;;-0.07;89.32
4085;BME280;2057;50.858;6.572;2023-03-01T09:08:49;101476.41;;;-0.05;88.72
4085;BME280;2057;50.858;6.572;2023-03-01T09:11:17;101477.34;;;-0.12;88.93
4085;BME280;2057;50.858;6.572;2023-03-01T09:13:45;101470.56;;;-0.13;88.72
4085;BME280;2057;50.858;6.572;2023-03-01T09:16:12;101473.25;;;-0.11;88.73
4085;BME280;2057;50.858;6.572;2023-03-01T09:18:38;101474.81;;;-0.05;89.24
4085;BME280;2057;50.858;6.572;2023-03-01T09:21:10;101471.91;;;-0.01;89.02
4085;BME280;2057;50.858;6.572;2023-03-01T09:23:37;101461.34;;;0.02;89.10
4085;BME280;2057;50.858;6.572;2023-03-01T09:26:05;101473.69;;;0.01;89.37
4085;BME280;2057;50.858;6.572;2023-03-01T09:28:30;101469.25;;;-0.02;89.61
4085;BME280;2057;50.858;6.572;2023-03-01T09:31:02;101465.78;;;0.05;89.14
4085;BME280;2057;50.858;6.572;2023-03-01T09:33:29;101469.25;;;-0.02;90.18
4085;BME280;2057;50.858;6.572;2023-03-01T09:36:03;101469.34;;;0.07;90.12
4085;BME280;2057;50.858;6.572;2023-03-01T09:38:30;101469.44;;;0.15;90.58
4085;BME280;2057;50.858;6.572;2023-03-01T09:40:55;101461.78;;;0.14;90.13
4085;BME280;2057;50.858;6.572;2023-03-01T09:43:45;101457.91;;;0.09;89.74
4085;BME280;2057;50.858;6.572;2023-03-01T09:46:14;101457.13;;;0.17;89.35
4085;BME280;2057;50.858;6.572;2023-03-01T09:48:50;101450.75;;;0.28;89.47
4085;BME280;2057;50.858;6.572;2023-03-01T09:51:39;101454.47;;;0.31;88.81
4085;BME280;2057;50.858;6.572;2023-03-01T09:54:05;101450.84;;;0.37;88.26
4085;BME280;2057;50.858;6.572;2023-03-01T09:57:26;101442.94;;;0.41;87.94
4085;BME280;2057;50.858;6.572;2023-03-01T09:59:58;101434.59;;;0.56;88.09
4085;BME280;2057;50.858;6.572;2023-03-01T10:02:51;101437.72;;;0.62;87.49
4085;BME280;2057;50.858;6.572;2023-03-01T10:08:24;101429.44;;;0.96;86.71
4085;BME280;2057;50.858;6.572;2023-03-01T10:10:51;101428.81;;;1.14;86.23
4085;BME280;2057;50.858;6.572;2023-03-01T10:19:02;101433.63;;;1.71;82.59
4085;BME280;2057;50.858;6.572;2023-03-01T10:21:35;101423.34;;;1.68;80.87
4085;BME280;2057;50.858;6.572;2023-03-01T10:24:14;101427.94;;;1.81;80.87
4085;BME280;2057;50.858;6.572;2023-03-01T10:26:55;101416.13;;;1.71;78.81
4085;BME280;2057;50.858;6.572;2023-03-01T10:32:21;101422.09;;;1.98;78.95
4085;BME280;2057;50.858;6.572;2023-03-01T10:34:47;101421.22;;;1.97;79.15
4085;BME280;2057;50.858;6.572;2023-03-01T10:37:16;101409.38;;;1.87;78.32
4085;BME280;2057;50.858;6.572;2023-03-01T10:40:10;101407.72;;;2.30;78.45
4085;BME280;2057;50.858;6.572;2023-03-01T10:42:39;101409.63;;;2.33;76.95
4085;BME280;2057;50.858;6.572;2023-03-01T10:45:37;101400.34;;;2.41;76.14
4085;BME280;2057;50.858;6.572;2023-03-01T10:50:45;101392.09;;;2.59;77.02
4085;BME280;2057;50.858;6.572;2023-03-01T10:53:29;101392.34;;;2.80;75.47
4085;BME280;2057;50.858;6.572;2023-03-01T10:56:07;101389.09;;;2.81;73.66
4085;BME280;2057;50.858;6.572;2023-03-01T10:58:35;101378.47;;;2.83;73.45
4085;BME280;2057;50.858;6.572;2023-03-01T11:01:06;101383.78;;;2.87;74.41
4085;BME280;2057;50.858;6.572;2023-03-01T11:06:32;101373.28;;;2.91;74.21
4085;BME280;2057;50.858;6.572;2023-03-01T11:09:17;101378.13;;;3.16;73.03
4085;BME280;2057;50.858;6.572;2023-03-01T11:11:55;101366.38;;;2.97;73.17
4085;BME280;2057;50.858;6.572;2023-03-01T11:14:26;101365.84;;;3.27;73.71
4085;BME280;2057;50.858;6.572;2023-03-01T11:17:22;101359.22;;;3.19;72.91
4085;BME280;2057;50.858;6.572;2023-03-01T11:22:56;101351.63;;;3.37;72.25
4085;BME280;2057;50.858;6.572;2023-03-01T11:25:27;101348.25;;;3.27;71.87
4085;BME280;2057;50.858;6.572;2023-03-01T11:30:37;101328.38;;;3.95;71.05
4085;BME280;2057;50.858;6.572;2023-03-01T11:35:58;101324.06;;;3.75;68.88
4085;BME280;2057;50.858;6.572;2023-03-01T11:38:26;101323.22;;;4.13;70.33
4085;BME280;2057;50.858;6.572;2023-03-01T11:40:57;101314.69;;;4.11;67.13
4085;BME280;2057;50.858;6.572;2023-03-01T12:18:52;101272.50;;;4.46;63.92
4085;BME280;2057;50.858;6.572;2023-03-01T12:27:11;101260.88;;;5.17;63.84
4085;BME280;2057;50.858;6.572;2023-03-01T12:51:05;101244.03;;;5.37;61.32
4085;BME280;2057;50.858;6.572;2023-03-01T12:53:35;101240.72;;;5.48;59.51
4085;BME280;2057;50.858;6.572;2023-03-01T12:56:07;101242.38;;;5.48;59.03
4085;BME280;2057;50.858;6.572;2023-03-01T12:58:58;101252.94;;;5.54;58.88
4085;BME280;2057;50.858;6.572;2023-03-01T13:01:39;101244.00;;;5.47;58.85
4085;BME280;2057;50.858;6.572;2023-03-01T13:04:21;101238.09;;;5.68;59.23
4085;BME280;2057;50.858;6.572;2023-03-01T13:06:58;101228.75;;;5.67;58.06
4085;BME280;2057;50.858;6.572;2023-03-01T13:15:36;101222.47;;;5.61;56.22
4085;BME280;2057;50.858;6.572;2023-03-01T13:18:03;101212.28;;;5.60;57.15
4085;BME280;2057;50.858;6.572;2023-03-01T13:23:06;101208.63;;;5.67;56.69
4085;BME280;2057;50.858;6.572;2023-03-01T13:25:33;101201.66;;;5.74;56.75
4085;BME280;2057;50.858;6.572;2023-03-01T13:33:50;101196.69;;;6.07;55.33
4085;BME280;2057;50.858;6.572;2023-03-01T13:44:21;101190.16;;;6.31;54.81
4085;BME280;2057;50.858;6.572;2023-03-01T13:46:52;101196.03;;;6.42;54.82
4085;BME280;2057;50.858;6.572;2023-03-01T13:49:21;101191.03;;;6.54;55.85
4085;BME280;2057;50.858;6.572;2023-03-01T13:51:51;101186.00;;;6.54;54.87
4085;BME280;2057;50.858;6.572;2023-03-01T13:54:26;101192.50;;;6.40;54.15
4085;BME280;2057;50.858;6.572;2023-03-01T13:56:54;101183.31;;;6.63;54.99
4085;BME280;2057;50.858;6.572;2023-03-01T13:59:22;101178.13;;;6.61;54.56
4085;BME280;2057;50.858;6.572;2023-03-01T14:01:54;101176.59;;;6.63;55.03
4085;BME280;2057;50.858;6.572;2023-03-01T14:04:27;101176.25;;;6.81;55.52
4085;BME280;2057;50.858;6.572;2023-03-01T14:07:19;101183.47;;;6.76;55.27
4085;BME280;2057;50.858;6.572;2023-03-01T14:09:47;101173.81;;;6.82;54.27
4085;BME280;2057;50.858;6.572;2023-03-01T14:15:29;101168.78;;;6.82;55.23
4085;BME280;2057;50.858;6.572;2023-03-01T14:20:40;101171.34;;;6.94;56.63
4085;BME280;2057;50.858;6.572;2023-03-01T14:23:15;101165.34;;;7.04;56.17
4085;BME280;2057;50.858;6.572;2023-03-01T14:25:48;101152.81;;;7.05;54.27
4085;BME280;2057;50.858;6.572;2023-03-01T14:28:24;101152.06;;;7.06;54.24
4085;BME280;2057;50.858;6.572;2023-03-01T14:30:53;101139.91;;;7.25;55.43
4085;BME280;2057;50.858;6.572;2023-03-01T14:33:31;101142.66;;;7.28;54.94
4085;BME280;2057;50.858;6.572;2023-03-01T14:36:06;101131.69;;;7.27;55.72
4085;BME280;2057;50.858;6.572;2023-03-01T14:38:43;101132.78;;;7.19;55.87
4085;BME280;2057;50.858;6.572;2023-03-01T14:41:13;101127.84;;;7.20;56.11
4085;BME280;2057;50.858;6.572;2023-03-01T14:43:46;101120.59;;;7.37;55.00
4085;BME280;2057;50.858;6.572;2023-03-01T14:46:25;101116.97;;;7.45;55.57
4085;BME280;2057;50.858;6.572;2023-03-01T14:48:53;101109.81;;;7.40;54.64
4085;BME280;2057;50.858;6.572;2023-03-01T14:51:19;101109.16;;;7.30;54.98
4085;BME280;2057;50.858;6.572;2023-03-01T14:53:45;101097.97;;;7.38;54.09
4085;BME280;2057;50.858;6.572;2023-03-01T14:56:15;101099.84;;;7.53;54.48
4085;BME280;2057;50.858;6.572;2023-03-01T14:58:44;101092.34;;;7.66;53.22
4085;BME280;2057;50.858;6.572;2023-03-01T15:01:15;101092.78;;;7.73;53.99
4085;BME280;2057;50.858;6.572;2023-03-01T15:03:46;101095.72;;;7.91;54.04
4085;BME280;2057;50.858;6.572;2023-03-01T15:06:16;101090.09;;;7.95;53.71
4085;BME280;2057;50.858;6.572;2023-03-01T15:08:46;101090.25;;;7.84;53.20
4085;BME280;2057;50.858;6.572;2023-03-01T15:11:22;101087.06;;;8.12;53.60
4085;BME280;2057;50.858;6.572;2023-03-01T15:13:50;101086.44;;;8.03;53.31
4085;BME280;2057;50.858;6.572;2023-03-01T15:16:38;101080.84;;;8.32;53.76
4085;BME280;2057;50.858;6.572;2023-03-01T15:19:06;101086.41;;;8.15;53.10
4085;BME280;2057;50.858;6.572;2023-03-01T15:21:38;101079.56;;;8.26;53.38
4085;BME280;2057;50.858;6.572;2023-03-01T15:26:54;101082.19;;;8.27;53.35
4085;BME280;2057;50.858;6.572;2023-03-01T15:29:22;101081.47;;;8.42;52.85
4085;BME280;2057;50.858;6.572;2023-03-01T15:34:32;101080.97;;;7.97;54.31
4085;BME280;2057;50.858;6.572;2023-03-01T15:37:00;101072.69;;;8.37;53.09
4085;BME280;2057;50.858;6.572;2023-03-01T15:42:11;101063.69;;;8.66;53.17